sensor_id;sensor_type;location;lat;lon;timestamp;pressure;altitude;pressure_sealevel;temperature;humidity
47761;BME280;33524;55.434;38.520;2024-03-25T00:01:22;98478.78;;;3.84;100.00
47761;BME280;33524;55.434;38.520;2024-03-25T00:03:50;98483.97;;;3.84;100.00
47761;BME280;33524;55.434;38.520;2024-03-25T00:06:17;98473.72;;;3.94;100.00
47761;BME280;33524;55.434;38.520;2024-03-25T00:08:44;98469.25;;;3.96;100.00
47761;BME280;33524;55.434;38.520;2024-03-25T00:11:11;98486.47;;;3.86;100.00
47761;BME280;33524;55.434;38.520;2024-03-25T00:13:38;98483.16;;;3.83;100.00
47761;BME280;33524;55.434;38.520;2024-03-25T00:16:05;98480.81;;;3.92;100.00
47761;BME280;33524;55.434;38.520;2024-03-25T00:18:33;98481.06;;;3.89;100.00
47761;BME280;33524;55.434;38.520;2024-03-25T00:21:00;98478.78;;;3.84;100.00
47761;BME280;33524;55.434;38.520;2024-03-25T00:23:27;98488.62;;;3.80;100.00
47761;BME280;33524;55.434;38.520;2024-03-25T00:25:55;98498.41;;;3.77;100.00
47761;BME280;33524;55.434;38.520;2024-03-25T00:28:22;98497.22;;;3.81;100.00
47761;BME280;33524;55.434;38.520;2024-03-25T00:30:48;98504.22;;;3.80;100.00
47761;BME280;33524;55.434;38.520;2024-03-25T00:33:16;98514.63;;;3.80;100.00
47761;BME280;33524;55.434;38.520;2024-03-25T00:35:44;98521.91;;;3.75;100.00
47761;BME280;33524;55.434;38.520;2024-03-25T00:38:12;98528.53;;;3.68;100.00
47761;BME280;33524;55.434;38.520;2024-03-25T00:40:40;98522.37;;;3.69;100.00
47761;BME280;33524;55.434;38.520;2024-03-25T00:43:07;98532.78;;;3.69;100.00
47761;BME280;33524;55.434;38.520;2024-03-25T00:45:34;98527.47;;;3.71;100.00
47761;BME280;33524;55.434;38.520;2024-03-25T00:48:01;98525.69;;;3.71;100.00
47761;BME280;33524;55.434;38.520;2024-03-25T00:50:28;98524.75;;;3.72;100.00
47761;BME280;33524;55.434;38.520;2024-03-25T00:52:55;98524.25;;;3.67;100.00
47761;BME280;33524;55.434;38.520;2024-03-25T00:55:22;98530.41;;;3.66;100.00
47761;BME280;33524;55.434;38.520;2024-03-25T00:57:49;98527.81;;;3.66;100.00
47761;BME280;33524;55.434;38.520;2024-03-25T01:00:16;98534.44;;;3.70;100.00
47761;BME280;33524;55.434;38.520;2024-03-25T01:02:44;98542.19;;;3.59;100.00
47761;BME280;33524;55.434;38.520;2024-03-25T01:05:11;98557.22;;;3.42;100.00
47761;BME280;33524;55.434;38.520;2024-03-25T01:07:38;98562.53;;;3.17;100.00
47761;BME280;33524;55.434;38.520;2024-03-25T01:10:07;98570.19;;;2.94;100.00
47761;BME280;33524;55.434;38.520;2024-03-25T01:12:35;98580.63;;;2.81;100.00
47761;BME280;33524;55.434;38.520;2024-03-25T01:15:02;98589.84;;;2.73;100.00
47761;BME280;33524;55.434;38.520;2024-03-25T01:17:30;98589.97;;;2.71;100.00
47761;BME280;33524;55.434;38.520;2024-03-25T01:19:57;98590.41;;;2.65;100.00
47761;BME280;33524;55.434;38.520;2024-03-25T01:22:24;98603.78;;;2.72;100.00
47761;BME280;33524;55.434;38.520;2024-03-25T01:24:52;98606.19;;;2.49;100.00
47761;BME280;33524;55.434;38.520;2024-03-25T01:27:19;98613.13;;;2.49;100.00
47761;BME280;33524;55.434;38.520;2024-03-25T01:29:46;98622.69;;;2.48;100.00
47761;BME280;33524;55.434;38.520;2024-03-25T01:32:13;98640.09;;;2.33;100.00
47761;BME280;33524;55.434;38.520;2024-03-25T01:34:40;98639.09;;;2.36;100.00
47761;BME280;33524;55.434;38.520;2024-03-25T01:37:07;98641.84;;;2.20;100.00
47761;BME280;33524;55.434;38.520;2024-03-25T01:39:34;98646.63;;;2.26;100.00
47761;BME280;33524;55.434;38.520;2024-03-25T01:42:02;98658.41;;;2.05;100.00
47761;BME280;33524;55.434;38.520;2024-03-25T01:44:29;98648.41;;;2.26;100.00
47761;BME280;33524;55.434;38.520;2024-03-25T01:46:57;98663.25;;;2.24;100.00
47761;BME280;33524;55.434;38.520;2024-03-25T01:49:24;98649.81;;;2.17;100.00
47761;BME280;33524;55.434;38.520;2024-03-25T01:51:51;98647.50;;;1.87;100.00
47761;BME280;33524;55.434;38.520;2024-03-25T01:54:19;98656.81;;;1.62;100.00
47761;BME280;33524;55.434;38.520;2024-03-25T01:56:46;98651.78;;;1.73;100.00
47761;BME280;33524;55.434;38.520;2024-03-25T01:59:15;98659.28;;;1.78;100.00
47761;BME280;33524;55.434;38.520;2024-03-25T02:01:44;98661.22;;;1.74;100.00
47761;BME280;33524;55.434;38.520;2024-03-25T02:04:13;98671.72;;;1.86;100.00
47761;BME280;33524;55.434;38.520;2024-03-25T02:06:41;98676.78;;;1.74;100.00
47761;BME280;33524;55.434;38.520;2024-03-25T02:09:10;98670.34;;;1.53;100.00
47761;BME280;33524;55.434;38.520;2024-03-25T02:11:40;98675.94;;;1.32;100.00
47761;BME280;33524;55.434;38.520;2024-03-25T02:14:09;98691.25;;;1.23;100.00
47761;BME280;33524;55.434;38.520;2024-03-25T02:16:36;98685.47;;;1.32;100.00
47761;BME280;33524;55.434;38.520;2024-03-25T02:19:04;98690.59;;;1.19;100.00
47761;BME280;33524;55.434;38.520;2024-03-25T02:21:31;98701.12;;;1.30;100.00
47761;BME280;33524;55.434;38.520;2024-03-25T02:23:59;98707.00;;;1.47;100.00
47761;BME280;33524;55.434;38.520;2024-03-25T02:26:28;98717.94;;;1.52;100.00
47761;BME280;33524;55.434;38.520;2024-03-25T02:28:55;98719.84;;;1.62;100.00
47761;BME280;33524;55.434;38.520;2024-03-25T02:31:22;98718.19;;;1.61;100.00
47761;BME280;33524;55.434;38.520;2024-03-25T02:33:50;98726.75;;;1.76;100.00
47761;BME280;33524;55.434;38.520;2024-03-25T02:36:17;98727.44;;;1.66;99.48
47761;BME280;33524;55.434;38.520;2024-03-25T02:38:44;98726.41;;;1.68;98.54
47761;BME280;33524;55.434;38.520;2024-03-25T02:41:11;98733.25;;;1.69;98.43
47761;BME280;33524;55.434;38.520;2024-03-25T02:43:38;98733.53;;;1.65;97.65
47761;BME280;33524;55.434;38.520;2024-03-25T02:46:05;98728.66;;;1.60;96.98
47761;BME280;33524;55.434;38.520;2024-03-25T02:48:32;98735.59;;;1.59;97.75
47761;BME280;33524;55.434;38.520;2024-03-25T02:50:59;98742.13;;;1.65;98.48
47761;BME280;33524;55.434;38.520;2024-03-25T02:53:26;98749.94;;;1.51;98.01
47761;BME280;33524;55.434;38.520;2024-03-25T02:55:54;98746.06;;;1.58;98.60
47761;BME280;33524;55.434;38.520;2024-03-25T02:58:21;98754.72;;;1.57;97.66
47761;BME280;33524;55.434;38.520;2024-03-25T03:00:48;98756.59;;;1.55;96.89
47761;BME280;33524;55.434;38.520;2024-03-25T03:03:15;98752.25;;;1.55;97.53
47761;BME280;33524;55.434;38.520;2024-03-25T03:05:42;98749.38;;;1.60;98.30
47761;BME280;33524;55.434;38.520;2024-03-25T03:08:08;98755.31;;;1.48;98.39
47761;BME280;33524;55.434;38.520;2024-03-25T03:10:36;98768.44;;;1.59;98.83
47761;BME280;33524;55.434;38.520;2024-03-25T03:13:03;98752.34;;;1.54;98.70
47761;BME280;33524;55.434;38.520;2024-03-25T03:15:30;98751.53;;;1.53;99.21
47761;BME280;33524;55.434;38.520;2024-03-25T03:18:00;98763.75;;;1.37;98.97
47761;BME280;33524;55.434;38.520;2024-03-25T03:20:27;98769.19;;;1.47;99.48
47761;BME280;33524;55.434;38.520;2024-03-25T03:22:54;98780.41;;;1.47;99.28
47761;BME280;33524;55.434;38.520;2024-03-25T03:25:21;98788.72;;;1.52;99.54
47761;BME280;33524;55.434;38.520;2024-03-25T03:27:48;98786.19;;;1.51;99.35
47761;BME280;33524;55.434;38.520;2024-03-25T03:30:15;98774.84;;;1.39;99.05
47761;BME280;33524;55.434;38.520;2024-03-25T03:32:42;98777.06;;;1.45;98.95
47761;BME280;33524;55.434;38.520;2024-03-25T03:35:09;98779.00;;;1.27;99.02
47761;BME280;33524;55.434;38.520;2024-03-25T03:37:35;98785.94;;;1.27;99.52
47761;BME280;33524;55.434;38.520;2024-03-25T03:40:04;98790.84;;;1.17;100.00
47761;BME280;33524;55.434;38.520;2024-03-25T03:42:34;98778.47;;;1.22;100.00
47761;BME280;33524;55.434;38.520;2024-03-25T03:45:00;98801.94;;;1.19;100.00
47761;BME280;33524;55.434;38.520;2024-03-25T03:47:30;98815.62;;;1.21;100.00
47761;BME280;33524;55.434;38.520;2024-03-25T03:49:57;98823.50;;;1.34;100.00
47761;BME280;33524;55.434;38.520;2024-03-25T03:52:24;98817.88;;;1.56;100.00
47761;BME280;33524;55.434;38.520;2024-03-25T03:54:51;98830.25;;;1.36;100.00
47761;BME280;33524;55.434;38.520;2024-03-25T03:57:18;98844.78;;;1.39;100.00
47761;BME280;33524;55.434;38.520;2024-03-25T03:59:45;98843.94;;;1.38;100.00
47761;BME280;33524;55.434;38.520;2024-03-25T04:02:12;98834.16;;;1.44;99.78
47761;BME280;33524;55.434;38.520;2024-03-25T04:04:40;98852.81;;;1.63;100.00
47761;BME280;33524;55.434;38.520;2024-03-25T04:07:07;98852.66;;;1.66;99.41
47761;BME280;33524;55.434;38.520;2024-03-25T04:09:34;98863.03;;;1.66;98.70
47761;BME280;33524;55.434;38.520;2024-03-25T04:12:01;98854.78;;;1.59;97.98
47761;BME280;33524;55.434;38.520;2024-03-25T04:14:28;98855.06;;;1.55;99.01
47761;BME280;33524;55.434;38.520;2024-03-25T04:16:55;98856.44;;;1.60;99.00
47761;BME280;33524;55.434;38.520;2024-03-25T04:19:26;98865.16;;;1.59;98.59
47761;BME280;33524;55.434;38.520;2024-03-25T04:21:54;98863.94;;;1.51;98.79
47761;BME280;33524;55.434;38.520;2024-03-25T04:24:21;98881.44;;;1.61;98.65
47761;BME280;33524;55.434;38.520;2024-03-25T04:26:48;98872.28;;;1.70;98.34
47761;BME280;33524;55.434;38.520;2024-03-25T04:29:15;98883.69;;;1.68;98.20
47761;BME280;33524;55.434;38.520;2024-03-25T04:31:43;98886.34;;;1.80;98.42
47761;BME280;33524;55.434;38.520;2024-03-25T04:34:09;98896.34;;;1.87;98.18
47761;BME280;33524;55.434;38.520;2024-03-25T04:36:37;98901.63;;;1.85;97.16
47761;BME280;33524;55.434;38.520;2024-03-25T04:39:04;98905.97;;;1.70;96.50
47761;BME280;33524;55.434;38.520;2024-03-25T04:41:34;98904.94;;;1.73;97.25
47761;BME280;33524;55.434;38.520;2024-03-25T04:44:01;98901.16;;;1.78;96.36
47761;BME280;33524;55.434;38.520;2024-03-25T04:46:29;98901.81;;;1.68;96.11
47761;BME280;33524;55.434;38.520;2024-03-25T04:48:56;98906.59;;;2.02;96.53
47761;BME280;33524;55.434;38.520;2024-03-25T04:51:24;98921.91;;;1.93;94.72
47761;BME280;33524;55.434;38.520;2024-03-25T04:53:52;98915.22;;;2.17;94.58
47761;BME280;33524;55.434;38.520;2024-03-25T04:56:19;98923.22;;;2.41;94.50
47761;BME280;33524;55.434;38.520;2024-03-25T04:58:46;98920.81;;;2.53;93.59
47761;BME280;33524;55.434;38.520;2024-03-25T05:01:13;98926.87;;;2.25;93.98
47761;BME280;33524;55.434;38.520;2024-03-25T05:03:40;98936.16;;;2.14;93.67
47761;BME280;33524;55.434;38.520;2024-03-25T05:06:07;98935.78;;;2.06;93.77
47761;BME280;33524;55.434;38.520;2024-03-25T05:08:38;98950.22;;;2.25;93.87
47761;BME280;33524;55.434;38.520;2024-03-25T05:11:05;98946.47;;;2.57;92.96
47761;BME280;33524;55.434;38.520;2024-03-25T05:13:32;98949.56;;;2.77;91.48
47761;BME280;33524;55.434;38.520;2024-03-25T05:16:00;98966.56;;;2.68;90.89
47761;BME280;33524;55.434;38.520;2024-03-25T05:18:27;98969.25;;;2.67;90.75
47761;BME280;33524;55.434;38.520;2024-03-25T05:20:54;98962.50;;;2.50;89.68
47761;BME280;33524;55.434;38.520;2024-03-25T05:23:21;98971.50;;;2.58;90.06
47761;BME280;33524;55.434;38.520;2024-03-25T05:25:49;98969.94;;;2.41;90.46
47761;BME280;33524;55.434;38.520;2024-03-25T05:28:16;98975.03;;;2.57;91.21
47761;BME280;33524;55.434;38.520;2024-03-25T05:30:43;98943.91;;;2.29;91.01
47761;BME280;33524;55.434;38.520;2024-03-25T05:33:10;98982.06;;;2.55;90.53
47761;BME280;33524;55.434;38.520;2024-03-25T05:35:37;98990.44;;;2.32;90.39
47761;BME280;33524;55.434;38.520;2024-03-25T05:38:04;98989.13;;;2.25;90.35
47761;BME280;33524;55.434;38.520;2024-03-25T05:40:31;98993.22;;;2.29;91.08
47761;BME280;33524;55.434;38.520;2024-03-25T05:42:58;98996.63;;;2.43;91.10
47761;BME280;33524;55.434;38.520;2024-03-25T05:45:25;99002.94;;;2.39;91.14
47761;BME280;33524;55.434;38.520;2024-03-25T05:47:52;99001.81;;;2.29;90.75
47761;BME280;33524;55.434;38.520;2024-03-25T05:50:19;99008.78;;;2.43;90.99
47761;BME280;33524;55.434;38.520;2024-03-25T05:52:47;99010.47;;;2.44;90.30
47761;BME280;33524;55.434;38.520;2024-03-25T05:55:14;99018.63;;;2.38;90.37
47761;BME280;33524;55.434;38.520;2024-03-25T05:57:41;99018.03;;;2.33;90.61
47761;BME280;33524;55.434;38.520;2024-03-25T06:00:09;99023.59;;;2.41;90.67
47761;BME280;33524;55.434;38.520;2024-03-25T06:02:38;99020.09;;;2.42;90.62
47761;BME280;33524;55.434;38.520;2024-03-25T06:05:05;99018.56;;;2.67;89.68
47761;BME280;33524;55.434;38.520;2024-03-25T06:07:32;99017.87;;;2.50;89.94
47761;BME280;33524;55.434;38.520;2024-03-25T06:09:59;99032.41;;;2.67;89.85
47761;BME280;33524;55.434;38.520;2024-03-25T06:12:28;99033.22;;;2.68;90.12
47761;BME280;33524;55.434;38.520;2024-03-25T06:14:55;99032.13;;;2.57;89.83
47761;BME280;33524;55.434;38.520;2024-03-25T06:17:22;99047.69;;;2.72;89.48
47761;BME280;33524;55.434;38.520;2024-03-25T06:19:49;99051.00;;;2.88;89.28
47761;BME280;33524;55.434;38.520;2024-03-25T06:22:18;99052.22;;;2.68;88.64
47761;BME280;33524;55.434;38.520;2024-03-25T06:24:45;99030.78;;;2.79;88.73
47761;BME280;33524;55.434;38.520;2024-03-25T06:27:12;99055.81;;;2.94;88.03
47761;BME280;33524;55.434;38.520;2024-03-25T06:29:40;99071.78;;;2.74;87.72
47761;BME280;33524;55.434;38.520;2024-03-25T06:32:07;99057.66;;;3.07;87.65
47761;BME280;33524;55.434;38.520;2024-03-25T06:34:52;99062.06;;;3.19;86.90
47761;BME280;33524;55.434;38.520;2024-03-25T06:37:19;99072.22;;;3.36;86.15
47761;BME280;33524;55.434;38.520;2024-03-25T06:39:46;99075.44;;;3.67;85.12
47761;BME280;33524;55.434;38.520;2024-03-25T06:42:14;99083.09;;;3.96;84.60
47761;BME280;33524;55.434;38.520;2024-03-25T06:44:41;99089.06;;;4.23;83.88
47761;BME280;33524;55.434;38.520;2024-03-25T06:47:09;99093.56;;;4.47;82.59
47761;BME280;33524;55.434;38.520;2024-03-25T06:49:37;99100.91;;;4.15;80.87
47761;BME280;33524;55.434;38.520;2024-03-25T06:52:03;99101.13;;;4.12;80.69
47761;BME280;33524;55.434;38.520;2024-03-25T06:54:30;99105.22;;;4.41;80.51
47761;BME280;33524;55.434;38.520;2024-03-25T06:56:58;99096.34;;;4.44;79.17
47761;BME280;33524;55.434;38.520;2024-03-25T06:59:25;99100.50;;;4.34;79.71
47761;BME280;33524;55.434;38.520;2024-03-25T07:01:52;99113.44;;;4.48;79.77
47761;BME280;33524;55.434;38.520;2024-03-25T07:04:20;99114.34;;;4.73;77.99
47761;BME280;33524;55.434;38.520;2024-03-25T07:06:47;99120.50;;;4.33;78.79
47761;BME280;33524;55.434;38.520;2024-03-25T07:09:13;99118.63;;;4.61;78.59
47761;BME280;33524;55.434;38.520;2024-03-25T07:11:41;99139.25;;;4.90;76.30
47761;BME280;33524;55.434;38.520;2024-03-25T07:14:13;99140.66;;;5.19;74.39
47761;BME280;33524;55.434;38.520;2024-03-25T07:16:40;99154.19;;;5.24;73.53
47761;BME280;33524;55.434;38.520;2024-03-25T07:19:07;99146.03;;;4.92;72.44
47761;BME280;33524;55.434;38.520;2024-03-25T07:21:33;99146.66;;;4.57;73.72
47761;BME280;33524;55.434;38.520;2024-03-25T07:24:01;99151.56;;;4.49;73.29
47761;BME280;33524;55.434;38.520;2024-03-25T07:26:29;99149.69;;;4.51;72.98
47761;BME280;33524;55.434;38.520;2024-03-25T07:28:56;99150.59;;;4.50;74.00
47761;BME280;33524;55.434;38.520;2024-03-25T07:31:23;99158.00;;;4.56;74.76
47761;BME280;33524;55.434;38.520;2024-03-25T07:33:50;99162.16;;;4.46;73.12
47761;BME280;33524;55.434;38.520;2024-03-25T07:36:17;99162.37;;;4.56;72.88
47761;BME280;33524;55.434;38.520;2024-03-25T07:38:45;99160.28;;;4.48;72.09
47761;BME280;33524;55.434;38.520;2024-03-25T07:41:12;99172.28;;;4.89;71.62
47761;BME280;33524;55.434;38.520;2024-03-25T07:43:39;99166.03;;;5.04;69.98
47761;BME280;33524;55.434;38.520;2024-03-25T07:46:06;99174.97;;;5.13;71.52
47761;BME280;33524;55.434;38.520;2024-03-25T07:48:33;99164.47;;;5.15;70.89
47761;BME280;33524;55.434;38.520;2024-03-25T07:51:02;99178.28;;;5.28;70.81
47761;BME280;33524;55.434;38.520;2024-03-25T07:53:29;99181.12;;;5.12;70.96
47761;BME280;33524;55.434;38.520;2024-03-25T07:55:56;99186.56;;;5.59;70.29
47761;BME280;33524;55.434;38.520;2024-03-25T07:58:23;99181.38;;;5.83;69.60
47761;BME280;33524;55.434;38.520;2024-03-25T08:00:50;99199.66;;;5.70;68.31
47761;BME280;33524;55.434;38.520;2024-03-25T08:03:17;99201.09;;;5.74;67.78
47761;BME280;33524;55.434;38.520;2024-03-25T08:05:44;99206.22;;;5.76;67.90
47761;BME280;33524;55.434;38.520;2024-03-25T08:08:11;99207.91;;;5.77;67.04
47761;BME280;33524;55.434;38.520;2024-03-25T08:10:38;99202.97;;;5.48;68.02
47761;BME280;33524;55.434;38.520;2024-03-25T08:13:05;99201.37;;;5.45;67.87
47761;BME280;33524;55.434;38.520;2024-03-25T08:15:32;99203.63;;;5.26;68.53
47761;BME280;33524;55.434;38.520;2024-03-25T08:17:59;99203.41;;;5.29;69.51
47761;BME280;33524;55.434;38.520;2024-03-25T08:20:26;99208.94;;;5.24;69.96
47761;BME280;33524;55.434;38.520;2024-03-25T08:22:52;99202.97;;;5.35;69.65
47761;BME280;33524;55.434;38.520;2024-03-25T08:25:20;99210.22;;;5.56;68.89
47761;BME280;33524;55.434;38.520;2024-03-25T08:27:47;99211.16;;;6.40;67.39
47761;BME280;33524;55.434;38.520;2024-03-25T08:30:14;99217.72;;;7.15;63.91
47761;BME280;33524;55.434;38.520;2024-03-25T08:32:42;99217.47;;;7.63;64.95
47761;BME280;33524;55.434;38.520;2024-03-25T08:35:09;99214.31;;;7.92;60.67
47761;BME280;33524;55.434;38.520;2024-03-25T08:37:36;99208.84;;;7.95;62.79
47761;BME280;33524;55.434;38.520;2024-03-25T08:40:03;99205.56;;;7.70;62.11
47761;BME280;33524;55.434;38.520;2024-03-25T08:42:30;99214.38;;;7.69;61.80
47761;BME280;33524;55.434;38.520;2024-03-25T08:44:57;99214.78;;;7.19;61.19
47761;BME280;33524;55.434;38.520;2024-03-25T08:47:26;99214.88;;;6.49;66.61
47761;BME280;33524;55.434;38.520;2024-03-25T08:49:53;99207.13;;;6.82;73.26
47761;BME280;33524;55.434;38.520;2024-03-25T08:52:20;99216.44;;;7.20;65.60
47761;BME280;33524;55.434;38.520;2024-03-25T08:54:49;99221.31;;;7.36;63.56
47761;BME280;33524;55.434;38.520;2024-03-25T08:57:16;99217.94;;;7.68;58.88
47761;BME280;33524;55.434;38.520;2024-03-25T08:59:43;99208.91;;;7.61;64.64
47761;BME280;33524;55.434;38.520;2024-03-25T09:02:10;99206.31;;;7.38;61.06
47761;BME280;33524;55.434;38.520;2024-03-25T09:04:37;99207.03;;;8.06;60.48
47761;BME280;33524;55.434;38.520;2024-03-25T09:07:03;99216.66;;;7.40;60.33
47761;BME280;33524;55.434;38.520;2024-03-25T09:09:31;99228.19;;;7.60;60.36
47761;BME280;33524;55.434;38.520;2024-03-25T09:12:16;99211.97;;;8.95;68.81
47761;BME280;33524;55.434;38.520;2024-03-25T09:14:44;99216.87;;;7.59;60.55
47761;BME280;33524;55.434;38.520;2024-03-25T09:17:10;99233.19;;;8.92;60.93
47761;BME280;33524;55.434;38.520;2024-03-25T09:19:38;99226.97;;;8.51;58.05
47761;BME280;33524;55.434;38.520;2024-03-25T09:22:05;99227.94;;;8.39;57.85
47761;BME280;33524;55.434;38.520;2024-03-25T09:24:31;99230.97;;;8.66;60.43
47761;BME280;33524;55.434;38.520;2024-03-25T09:26:58;99239.06;;;7.99;57.41
47761;BME280;33524;55.434;38.520;2024-03-25T09:29:25;99211.53;;;8.48;60.55
47761;BME280;33524;55.434;38.520;2024-03-25T09:31:52;99245.56;;;7.61;58.19
47761;BME280;33524;55.434;38.520;2024-03-25T09:34:19;99235.31;;;7.58;59.01
47761;BME280;33524;55.434;38.520;2024-03-25T09:36:46;99235.94;;;7.94;58.87
47761;BME280;33524;55.434;38.520;2024-03-25T09:39:13;99228.50;;;8.54;56.54
47761;BME280;33524;55.434;38.520;2024-03-25T09:41:42;99221.44;;;8.33;58.01
47761;BME280;33524;55.434;38.520;2024-03-25T09:44:10;99243.28;;;7.67;57.68
47761;BME280;33524;55.434;38.520;2024-03-25T09:46:37;99237.81;;;7.48;60.44
47761;BME280;33524;55.434;38.520;2024-03-25T09:49:04;99223.97;;;8.23;59.47
47761;BME280;33524;55.434;38.520;2024-03-25T09:51:32;99246.87;;;8.10;57.90
47761;BME280;33524;55.434;38.520;2024-03-25T09:53:59;99242.72;;;7.30;58.47
47761;BME280;33524;55.434;38.520;2024-03-25T09:56:26;99229.94;;;8.25;60.17
47761;BME280;33524;55.434;38.520;2024-03-25T09:58:53;99238.50;;;7.84;57.35
47761;BME280;33524;55.434;38.520;2024-03-25T10:01:20;99240.47;;;7.92;60.35
47761;BME280;33524;55.434;38.520;2024-03-25T10:03:47;99240.69;;;7.45;58.92
47761;BME280;33524;55.434;38.520;2024-03-25T10:06:14;99239.72;;;7.57;62.47
47761;BME280;33524;55.434;38.520;2024-03-25T10:08:45;99241.66;;;7.99;58.32
47761;BME280;33524;55.434;38.520;2024-03-25T10:11:12;99235.34;;;7.24;59.32
47761;BME280;33524;55.434;38.520;2024-03-25T10:13:41;99252.84;;;8.01;57.01
47761;BME280;33524;55.434;38.520;2024-03-25T10:16:07;99239.16;;;8.41;57.12
47761;BME280;33524;55.434;38.520;2024-03-25T10:18:35;99250.44;;;8.74;56.13
47761;BME280;33524;55.434;38.520;2024-03-25T10:21:02;99260.59;;;8.35;54.89
47761;BME280;33524;55.434;38.520;2024-03-25T10:23:33;99267.31;;;8.16;55.81
47761;BME280;33524;55.434;38.520;2024-03-25T10:26:03;99246.06;;;8.95;55.04
47761;BME280;33524;55.434;38.520;2024-03-25T10:28:30;99257.22;;;9.49;55.76
47761;BME280;33524;55.434;38.520;2024-03-25T10:31:03;99255.78;;;10.45;52.30
47761;BME280;33524;55.434;38.520;2024-03-25T10:33:30;99242.88;;;11.38;49.44
47761;BME280;33524;55.434;38.520;2024-03-25T10:35:59;99254.72;;;11.15;48.73
47761;BME280;33524;55.434;38.520;2024-03-25T10:38:28;99248.00;;;10.93;48.48
47761;BME280;33524;55.434;38.520;2024-03-25T10:40:57;99256.06;;;10.72;49.61
47761;BME280;33524;55.434;38.520;2024-03-25T10:43:25;99253.22;;;9.95;50.52
47761;BME280;33524;55.434;38.520;2024-03-25T10:45:57;99246.81;;;9.78;51.48
47761;BME280;33524;55.434;38.520;2024-03-25T10:48:30;99239.09;;;9.86;53.25
47761;BME280;33524;55.434;38.520;2024-03-25T10:51:00;99254.00;;;9.76;51.21
47761;BME280;33524;55.434;38.520;2024-03-25T10:53:28;99251.31;;;8.42;54.52
47761;BME280;33524;55.434;38.520;2024-03-25T10:55:56;99247.56;;;8.23;55.48
47761;BME280;33524;55.434;38.520;2024-03-25T10:58:23;99238.00;;;8.34;56.25
47761;BME280;33524;55.434;38.520;2024-03-25T11:00:53;99250.12;;;8.88;56.38
47761;BME280;33524;55.434;38.520;2024-03-25T11:03:23;99261.00;;;9.04;55.22
47761;BME280;33524;55.434;38.520;2024-03-25T11:05:52;99255.16;;;9.22;53.21
47761;BME280;33524;55.434;38.520;2024-03-25T11:08:19;99257.53;;;9.56;54.12
47761;BME280;33524;55.434;38.520;2024-03-25T11:10:47;99251.03;;;10.20;53.90
47761;BME280;33524;55.434;38.520;2024-03-25T11:13:16;99257.94;;;10.11;51.81
47761;BME280;33524;55.434;38.520;2024-03-25T11:15:46;99253.78;;;10.08;51.51
47761;BME280;33524;55.434;38.520;2024-03-25T11:18:14;99261.66;;;9.99;51.06
47761;BME280;33524;55.434;38.520;2024-03-25T11:20:44;99262.06;;;10.04;51.93
47761;BME280;33524;55.434;38.520;2024-03-25T11:23:12;99265.38;;;9.96;51.57
47761;BME280;33524;55.434;38.520;2024-03-25T11:25:41;99268.44;;;10.01;51.84
47761;BME280;33524;55.434;38.520;2024-03-25T11:28:09;99268.03;;;10.06;52.94
47761;BME280;33524;55.434;38.520;2024-03-25T11:30:36;99264.44;;;10.07;51.10
47761;BME280;33524;55.434;38.520;2024-03-25T11:33:04;99282.38;;;10.02;51.03
47761;BME280;33524;55.434;38.520;2024-03-25T11:35:38;99276.41;;;9.80;51.00
47761;BME280;33524;55.434;38.520;2024-03-25T11:38:05;99271.94;;;9.71;52.36
47761;BME280;33524;55.434;38.520;2024-03-25T11:40:32;99288.84;;;9.78;52.23
47761;BME280;33524;55.434;38.520;2024-03-25T11:42:59;99293.25;;;9.78;52.02
47761;BME280;33524;55.434;38.520;2024-03-25T11:45:27;99296.09;;;9.65;52.32
47761;BME280;33524;55.434;38.520;2024-03-25T11:47:54;99293.44;;;9.55;53.07
47761;BME280;33524;55.434;38.520;2024-03-25T11:50:21;99293.56;;;9.54;53.29
47761;BME280;33524;55.434;38.520;2024-03-25T11:52:48;99298.19;;;9.71;53.54
47761;BME280;33524;55.434;38.520;2024-03-25T11:55:17;99302.38;;;9.53;53.65
47761;BME280;33524;55.434;38.520;2024-03-25T11:57:45;99300.78;;;9.31;53.13
47761;BME280;33524;55.434;38.520;2024-03-25T12:00:12;99307.00;;;9.08;53.26
47761;BME280;33524;55.434;38.520;2024-03-25T12:02:45;99298.75;;;8.92;54.15
47761;BME280;33524;55.434;38.520;2024-03-25T12:05:14;99300.22;;;8.85;53.88
47761;BME280;33524;55.434;38.520;2024-03-25T12:07:41;99312.00;;;8.58;55.29
47761;BME280;33524;55.434;38.520;2024-03-25T12:10:08;99307.00;;;8.55;55.60
47761;BME280;33524;55.434;38.520;2024-03-25T12:12:55;99304.75;;;8.51;55.29
47761;BME280;33524;55.434;38.520;2024-03-25T12:15:22;99302.97;;;8.51;55.61
47761;BME280;33524;55.434;38.520;2024-03-25T12:17:50;99311.81;;;8.50;56.03
47761;BME280;33524;55.434;38.520;2024-03-25T12:20:20;99313.72;;;8.48;55.44
47761;BME280;33524;55.434;38.520;2024-03-25T12:22:48;99310.13;;;8.49;56.43
47761;BME280;33524;55.434;38.520;2024-03-25T12:25:15;99312.75;;;8.38;56.51
47761;BME280;33524;55.434;38.520;2024-03-25T12:27:46;99309.56;;;8.34;56.24
47761;BME280;33524;55.434;38.520;2024-03-25T12:30:14;99307.91;;;8.33;56.37
47761;BME280;33524;55.434;38.520;2024-03-25T12:32:43;99314.69;;;8.36;56.54
47761;BME280;33524;55.434;38.520;2024-03-25T12:35:16;99290.28;;;8.24;55.52
47761;BME280;33524;55.434;38.520;2024-03-25T12:37:46;99313.47;;;8.40;56.44
47761;BME280;33524;55.434;38.520;2024-03-25T12:40:27;99313.72;;;8.48;56.21
47761;BME280;33524;55.434;38.520;2024-03-25T12:42:54;99306.78;;;8.47;55.41
47761;BME280;33524;55.434;38.520;2024-03-25T12:45:22;99314.37;;;8.61;55.60
47761;BME280;33524;55.434;38.520;2024-03-25T12:47:52;99326.75;;;8.59;55.75
47761;BME280;33524;55.434;38.520;2024-03-25T12:50:19;99322.19;;;8.73;55.19
47761;BME280;33524;55.434;38.520;2024-03-25T12:52:51;99325.59;;;8.84;55.05
47761;BME280;33524;55.434;38.520;2024-03-25T12:55:18;99317.28;;;8.79;55.03
47761;BME280;33524;55.434;38.520;2024-03-25T12:57:45;99317.50;;;8.76;55.12
47761;BME280;33524;55.434;38.520;2024-03-25T13:00:12;99316.19;;;8.82;56.04